createdAt,value
2018-05-29T00:00:01.690Z,25.51
2018-05-29T00:02:30.264Z,25.51
2018-05-29T00:04:58.924Z,25.49
2018-05-29T00:07:27.271Z,25.53
2018-05-29T00:09:56.667Z,25.51
2018-05-29T00:12:25.919Z,25.46
2018-05-29T00:14:54.242Z,25.42
2018-05-29T00:17:23.405Z,25.35
2018-05-29T00:19:51.775Z,25.36
2018-05-29T00:22:20.584Z,25.32
2018-05-29T00:24:48.937Z,25.29
2018-05-29T00:27:18.266Z,25.28
2018-05-29T00:29:47.409Z,25.23
2018-05-29T00:32:15.808Z,25.19
2018-05-29T00:34:44.146Z,25.03
2018-05-29T00:37:14.485Z,24.95
2018-05-29T00:39:42.917Z,24.95
2018-05-29T00:42:12.575Z,24.94
2018-05-29T00:44:40.916Z,24.97
2018-05-29T00:47:10.255Z,24.98
2018-05-29T00:49:38.575Z,24.91
2018-05-29T00:52:07.251Z,24.89
2018-05-29T00:54:35.680Z,24.88
2018-05-29T00:57:04.029Z,24.86
2018-05-29T00:59:32.361Z,24.87
2018-05-29T01:02:00.933Z,24.86
2018-05-29T01:04:29.256Z,24.88
2018-05-29T01:06:57.824Z,24.85
2018-05-29T01:09:26.391Z,24.82
2018-05-29T01:11:54.941Z,24.78
2018-05-29T01:14:23.274Z,24.74
2018-05-29T01:16:52.857Z,24.64
2018-05-29T01:19:21.200Z,24.65
2018-05-29T01:21:49.734Z,24.61
2018-05-29T01:24:19.054Z,24.61
2018-05-29T01:26:47.576Z,24.58
2018-05-29T01:29:15.962Z,24.50
2018-05-29T01:31:44.360Z,24.48
2018-05-29T01:34:13.547Z,24.47
2018-05-29T01:36:41.842Z,24.48
2018-05-29T01:39:11.201Z,24.45
2018-05-29T01:41:39.527Z,24.44
2018-05-29T01:44:08.151Z,24.46
2018-05-29T01:46:36.647Z,24.41
2018-05-29T01:49:05.023Z,24.36
2018-05-29T01:51:33.449Z,24.35
2018-05-29T01:54:01.832Z,24.37
2018-05-29T01:56:30.492Z,24.36
2018-05-29T01:58:58.816Z,24.37
2018-05-29T02:01:27.127Z,24.34
2018-05-29T02:03:57.134Z,24.36
2018-05-29T02:06:26.326Z,24.29
2018-05-29T02:08:54.641Z,24.29
2018-05-29T02:11:24.052Z,24.29
2018-05-29T02:13:52.382Z,24.26
2018-05-29T02:16:20.806Z,24.28
2018-05-29T02:18:49.218Z,24.27
2018-05-29T02:21:17.831Z,24.24
2018-05-29T02:23:46.362Z,24.21
2018-05-29T02:26:14.700Z,24.17
2018-05-29T02:28:43.814Z,23.93
2018-05-29T02:31:12.206Z,24.10
2018-05-29T02:33:40.572Z,24.11
2018-05-29T02:36:09.170Z,23.95
2018-05-29T02:38:37.540Z,23.91
2018-05-29T02:41:05.891Z,23.91
2018-05-29T02:43:36.170Z,23.80
2018-05-29T02:46:04.477Z,23.73
2018-05-29T02:48:33.700Z,23.65
2018-05-29T02:51:02.031Z,23.64
2018-05-29T02:53:30.806Z,23.59
2018-05-29T02:55:59.360Z,23.23
2018-05-29T02:58:27.702Z,23.17
2018-05-29T03:00:56.804Z,23.24
2018-05-29T03:03:25.912Z,23.32
2018-05-29T03:05:54.280Z,23.39
2018-05-29T03:08:23.612Z,23.50
2018-05-29T03:10:52.277Z,23.56
2018-05-29T03:13:20.761Z,23.63
2018-05-29T03:15:49.211Z,23.67
2018-05-29T03:18:19.486Z,23.68
2018-05-29T03:20:48.052Z,23.71
2018-05-29T03:23:16.511Z,23.74
2018-05-29T03:25:44.958Z,23.67
2018-05-29T03:28:14.192Z,23.61
2018-05-29T03:30:42.531Z,23.58
2018-05-29T03:33:11.136Z,23.56
2018-05-29T03:35:39.470Z,23.52
2018-05-29T03:38:07.960Z,23.56
2018-05-29T03:40:36.851Z,23.60
2018-05-29T03:43:05.457Z,23.63
2018-05-29T03:45:33.846Z,23.65
2018-05-29T03:48:02.200Z,23.61
2018-05-29T03:50:31.806Z,23.63
2018-05-29T03:53:02.298Z,23.61
2018-05-29T03:55:30.738Z,23.65
2018-05-29T03:57:59.031Z,23.68
2018-05-29T04:00:27.326Z,23.72
2018-05-29T04:02:55.743Z,23.88
2018-05-29T04:05:24.243Z,24.07
2018-05-29T04:07:52.801Z,24.23
2018-05-29T04:10:21.961Z,24.41
2018-05-29T04:12:50.303Z,24.67
2018-05-29T04:15:18.671Z,24.72
2018-05-29T04:17:46.990Z,24.76
2018-05-29T04:20:15.570Z,24.86
2018-05-29T04:22:45.332Z,24.99
2018-05-29T04:25:13.729Z,25.27
2018-05-29T04:27:42.013Z,25.38
2018-05-29T04:30:10.467Z,25.58
2018-05-29T04:32:39.061Z,25.46
2018-05-29T04:35:07.480Z,25.41
2018-05-29T04:37:37.632Z,25.22
2018-05-29T04:40:07.062Z,24.96
2018-05-29T04:42:35.415Z,24.81
2018-05-29T04:45:04.517Z,24.66
2018-05-29T04:47:33.172Z,24.53
2018-05-29T04:50:01.624Z,24.41
2018-05-29T04:52:30.074Z,24.37
2018-05-29T04:54:58.451Z,24.22
2018-05-29T04:57:26.815Z,24.13
2018-05-29T04:59:55.141Z,24.14
2018-05-29T05:02:23.563Z,24.18
2018-05-29T05:04:52.121Z,24.15
2018-05-29T05:07:20.458Z,24.18
2018-05-29T05:09:48.813Z,24.23
2018-05-29T05:12:17.144Z,24.25
2018-05-29T05:14:45.777Z,24.29
2018-05-29T05:17:14.457Z,24.28
2018-05-29T05:19:42.831Z,24.28
2018-05-29T05:22:11.292Z,24.27
2018-05-29T05:24:40.738Z,24.27
2018-05-29T05:27:09.183Z,24.34
2018-05-29T05:29:38.517Z,24.39
2018-05-29T05:32:06.954Z,24.41
2018-05-29T05:34:36.253Z,24.35
2018-05-29T05:37:04.632Z,24.34
2018-05-29T05:39:33.531Z,24.41
2018-05-29T05:42:01.877Z,24.47
2018-05-29T05:44:31.114Z,24.53
2018-05-29T05:46:59.468Z,24.53
2018-05-29T05:49:27.799Z,24.58
2018-05-29T05:51:56.221Z,24.62
2018-05-29T05:54:24.691Z,24.65
2018-05-29T05:56:54.283Z,24.70
2018-05-29T05:59:23.727Z,24.78
2018-05-29T06:01:52.177Z,24.82
2018-05-29T06:04:21.347Z,24.83
2018-05-29T06:06:51.306Z,24.75
2018-05-29T06:09:19.809Z,24.74
2018-05-29T06:11:48.406Z,24.80
2018-05-29T06:14:16.771Z,24.84
2018-05-29T06:16:45.128Z,24.86
2018-05-29T06:19:13.464Z,24.88
2018-05-29T06:21:41.863Z,24.97
2018-05-29T06:24:10.978Z,25.10
2018-05-29T06:26:39.508Z,25.18
2018-05-29T06:29:07.916Z,25.25
2018-05-29T06:31:36.652Z,25.33
2018-05-29T06:34:05.012Z,25.35
2018-05-29T06:36:33.958Z,25.40
2018-05-29T06:39:03.018Z,25.41
2018-05-29T06:41:31.583Z,25.47
2018-05-29T06:43:59.868Z,25.58
2018-05-29T06:46:28.442Z,25.73
2018-05-29T06:48:56.791Z,25.83
2018-05-29T06:51:25.323Z,25.87
2018-05-29T06:53:53.632Z,25.91
2018-05-29T06:56:22.011Z,25.97
2018-05-29T06:58:50.406Z,25.99
2018-05-29T07:01:19.824Z,25.99
2018-05-29T07:03:48.278Z,26.05
2018-05-29T07:06:16.755Z,26.10
2018-05-29T07:08:45.059Z,26.14
2018-05-29T07:11:13.433Z,26.14
2018-05-29T07:13:41.751Z,26.21
2018-05-29T07:16:10.207Z,26.24
2018-05-29T07:18:38.546Z,26.33
2018-05-29T07:21:07.076Z,26.46
2018-05-29T07:23:36.393Z,26.55
2018-05-29T07:26:05.612Z,26.69
2018-05-29T07:28:34.133Z,26.81
2018-05-29T07:31:02.458Z,26.79
2018-05-29T07:33:32.817Z,26.78
2018-05-29T07:36:01.192Z,26.86
2018-05-29T07:38:29.697Z,26.94
2018-05-29T07:40:58.127Z,27.00
2018-05-29T07:43:26.472Z,27.07
2018-05-29T07:45:54.991Z,27.17
2018-05-29T07:48:23.347Z,27.28
2018-05-29T07:50:52.496Z,27.38
2018-05-29T07:53:21.066Z,27.47
2018-05-29T07:55:49.545Z,27.54
2018-05-29T07:58:17.871Z,27.61
2018-05-29T08:00:47.015Z,27.69
2018-05-29T08:03:15.453Z,27.75
2018-05-29T08:05:44.573Z,27.70
2018-05-29T08:08:12.946Z,27.79
2018-05-29T08:10:41.479Z,27.89
2018-05-29T08:13:09.967Z,27.92
2018-05-29T08:15:38.476Z,27.99
2018-05-29T08:18:06.777Z,28.08
2018-05-29T08:20:35.171Z,28.13
2018-05-29T08:23:03.532Z,28.16
2018-05-29T08:25:31.903Z,28.18
2018-05-29T08:28:00.412Z,28.25
2018-05-29T08:30:28.862Z,28.38
2018-05-29T08:32:57.941Z,28.41
2018-05-29T08:35:26.438Z,28.47
2018-05-29T08:37:54.856Z,28.55
2018-05-29T08:40:23.393Z,28.65
2018-05-29T08:42:52.942Z,28.71
2018-05-29T08:45:21.313Z,28.75
2018-05-29T08:47:50.487Z,28.81
2018-05-29T08:50:18.954Z,28.83
2018-05-29T08:52:47.447Z,28.90
2018-05-29T08:55:15.978Z,28.97
2018-05-29T08:57:45.239Z,29.06
2018-05-29T09:00:13.661Z,29.07
2018-05-29T09:02:42.899Z,29.15
2018-05-29T09:05:11.300Z,29.22
2018-05-29T09:07:39.884Z,29.25
2018-05-29T09:10:10.127Z,29.26
2018-05-29T09:12:40.563Z,29.34
2018-05-29T09:15:09.053Z,29.32
2018-05-29T09:17:37.600Z,29.35
2018-05-29T09:20:05.983Z,29.37
2018-05-29T09:22:35.332Z,29.45
2018-05-29T09:25:04.658Z,29.55
2018-05-29T09:27:33.113Z,29.56
2018-05-29T09:30:01.511Z,29.61
2018-05-29T09:32:29.828Z,29.64
2018-05-29T09:34:59.232Z,29.63
2018-05-29T09:37:27.959Z,29.70
2018-05-29T09:39:57.199Z,29.73
2018-05-29T09:42:26.517Z,29.81
2018-05-29T09:44:55.636Z,29.82
2018-05-29T09:47:25.728Z,29.80
2018-05-29T09:49:56.034Z,29.82
2018-05-29T09:52:25.133Z,29.82
2018-05-29T09:54:53.551Z,29.80
2018-05-29T09:57:21.865Z,29.87
2018-05-29T09:59:50.192Z,29.94
2018-05-29T10:02:18.784Z,29.98
2018-05-29T10:04:47.228Z,30.04
2018-05-29T10:07:15.817Z,30.02
2018-05-29T10:09:44.136Z,30.12
2018-05-29T10:12:12.512Z,30.15
2018-05-29T10:14:40.879Z,30.18
2018-05-29T10:17:09.552Z,30.17
2018-05-29T10:19:37.923Z,30.10
2018-05-29T10:22:06.294Z,30.05
2018-05-29T10:24:34.639Z,30.10
2018-05-29T10:27:03.047Z,30.17
2018-05-29T10:29:31.803Z,30.22
2018-05-29T10:32:00.139Z,30.22
2018-05-29T10:34:28.494Z,30.06
2018-05-29T10:36:56.972Z,30.35
2018-05-29T10:39:25.487Z,30.41
2018-05-29T10:41:53.988Z,30.49
2018-05-29T10:44:22.519Z,30.53
2018-05-29T10:46:51.113Z,30.55
2018-05-29T10:49:19.454Z,30.55
2018-05-29T10:51:50.043Z,30.58
2018-05-29T10:54:18.454Z,30.61
2018-05-29T10:56:47.688Z,30.64
2018-05-29T10:59:16.163Z,30.67
2018-05-29T11:01:44.713Z,30.73
2018-05-29T11:04:13.192Z,30.80
2018-05-29T11:06:42.431Z,30.85
2018-05-29T11:09:10.855Z,30.90
2018-05-29T11:11:39.401Z,30.87
2018-05-29T11:14:07.844Z,30.88
2018-05-29T11:16:36.352Z,30.93
2018-05-29T11:19:04.664Z,30.93
2018-05-29T11:21:33.039Z,30.95
2018-05-29T11:24:01.394Z,30.99
2018-05-29T11:26:29.858Z,31.09
2018-05-29T11:28:58.355Z,31.19
2018-05-29T11:31:26.907Z,31.30
2018-05-29T11:33:55.494Z,31.44
2018-05-29T11:36:24.059Z,31.57
2018-05-29T11:38:52.598Z,31.66
2018-05-29T11:41:20.943Z,31.65
2018-05-29T11:43:49.413Z,31.68
2018-05-29T11:46:17.930Z,31.74
2018-05-29T11:48:46.391Z,31.80
2018-05-29T11:51:15.213Z,31.91
2018-05-29T11:53:45.763Z,31.88
2018-05-29T11:56:14.121Z,31.91
2018-05-29T11:58:43.283Z,31.90
2018-05-29T12:01:11.640Z,31.91
2018-05-29T12:03:39.957Z,31.91
2018-05-29T12:06:08.381Z,31.92
2018-05-29T12:08:36.833Z,32.04
2018-05-29T12:11:06.068Z,32.19
2018-05-29T12:13:34.534Z,32.31
2018-05-29T12:16:02.929Z,32.28
2018-05-29T12:18:31.304Z,32.26
2018-05-29T12:20:59.670Z,32.21
2018-05-29T12:23:28.018Z,32.30
2018-05-29T12:25:58.439Z,32.50
2018-05-29T12:28:26.845Z,32.64
2018-05-29T12:30:55.333Z,32.72
2018-05-29T12:33:23.648Z,32.74
2018-05-29T12:35:51.951Z,32.69
2018-05-29T12:38:21.160Z,32.56
2018-05-29T12:40:49.485Z,32.59
2018-05-29T12:43:17.938Z,32.69
2018-05-29T12:45:46.276Z,32.77
2018-05-29T12:48:14.883Z,32.74
2018-05-29T12:50:43.260Z,32.64
2018-05-29T12:53:11.667Z,32.45
2018-05-29T12:55:41.904Z,32.30
2018-05-29T12:58:10.450Z,32.16
2018-05-29T13:00:39.125Z,32.02
2018-05-29T13:03:07.475Z,31.86
2018-05-29T13:05:36.583Z,31.63
2018-05-29T13:08:04.985Z,31.42
2018-05-29T13:10:33.562Z,31.24
2018-05-29T13:13:01.953Z,31.12
2018-05-29T13:15:30.445Z,30.98
2018-05-29T13:17:58.797Z,30.89
2018-05-29T13:20:27.140Z,30.77
2018-05-29T13:22:56.272Z,30.64
2018-05-29T13:25:24.659Z,30.59
2018-05-29T13:27:54.775Z,30.44
2018-05-29T13:30:23.084Z,30.39
2018-05-29T13:32:51.485Z,30.27
2018-05-29T13:35:20.628Z,30.25
2018-05-29T13:37:49.164Z,30.11
2018-05-29T13:40:18.359Z,29.95
2018-05-29T13:42:47.500Z,29.89
2018-05-29T13:45:15.876Z,29.65
2018-05-29T13:47:44.419Z,29.40
2018-05-29T13:50:12.924Z,29.17
2018-05-29T13:52:41.294Z,29.01
2018-05-29T13:55:09.869Z,28.73
2018-05-29T13:57:38.209Z,28.35
2018-05-29T14:00:08.053Z,28.21
2018-05-29T14:02:36.563Z,28.13
2018-05-29T14:05:05.084Z,28.07
2018-05-29T14:07:33.518Z,28.11
2018-05-29T14:10:01.966Z,28.04
2018-05-29T14:12:30.316Z,27.93
2018-05-29T14:14:58.865Z,27.77
2018-05-29T14:17:27.295Z,27.73
2018-05-29T14:19:55.825Z,27.77
2018-05-29T14:22:24.228Z,27.71
2018-05-29T14:24:52.770Z,27.54
2018-05-29T14:27:21.120Z,27.13
2018-05-29T14:29:49.662Z,26.87
2018-05-29T14:32:20.794Z,26.72
2018-05-29T14:34:49.165Z,26.60
2018-05-29T14:37:17.504Z,26.38
2018-05-29T14:39:45.928Z,26.22
2018-05-29T14:42:15.069Z,26.03
2018-05-29T14:44:43.561Z,26.01
2018-05-29T14:47:12.081Z,26.00
2018-05-29T14:49:41.456Z,26.03
2018-05-29T14:52:09.981Z,26.08
2018-05-29T14:54:38.360Z,26.07
2018-05-29T14:57:06.746Z,26.11
2018-05-29T14:59:35.960Z,26.19
2018-05-29T15:02:04.573Z,26.18
2018-05-29T15:04:32.969Z,26.20
2018-05-29T15:07:01.645Z,26.05
2018-05-29T15:09:30.385Z,25.99
2018-05-29T15:11:59.070Z,26.11
2018-05-29T15:14:27.756Z,26.18
2018-05-29T15:16:56.151Z,26.44
2018-05-29T15:19:24.799Z,26.23
2018-05-29T15:21:54.073Z,25.95
2018-05-29T15:24:22.498Z,25.73
2018-05-29T15:26:51.005Z,25.61
2018-05-29T15:29:19.781Z,25.52
2018-05-29T15:31:48.300Z,25.21
2018-05-29T15:34:16.702Z,25.04
2018-05-29T15:36:45.920Z,25.08
2018-05-29T15:39:16.166Z,25.02
2018-05-29T15:41:44.767Z,24.98
2018-05-29T15:44:13.205Z,24.89
2018-05-29T15:46:42.706Z,24.95
2018-05-29T15:49:11.050Z,24.70
2018-05-29T15:51:40.209Z,24.50
2018-05-29T15:54:08.685Z,24.39
2018-05-29T15:56:37.186Z,24.29
2018-05-29T15:59:05.620Z,24.17
2018-05-29T16:01:34.063Z,24.10
2018-05-29T16:04:02.424Z,24.12
2018-05-29T16:06:30.771Z,24.06
2018-05-29T16:08:59.249Z,23.97
2018-05-29T16:11:27.615Z,23.99
2018-05-29T16:13:57.664Z,23.98
2018-05-29T16:16:27.752Z,24.03
2018-05-29T16:18:58.013Z,23.97
2018-05-29T16:21:27.855Z,23.94
2018-05-29T16:23:58.180Z,23.88
2018-05-29T16:26:28.068Z,23.98
2018-05-29T16:28:58.025Z,24.07
2018-05-29T16:31:28.176Z,24.00
2018-05-29T16:33:58.157Z,24.05
2018-05-29T16:36:28.264Z,24.01
2018-05-29T16:38:58.325Z,23.96
2018-05-29T16:41:26.890Z,23.92
2018-05-29T16:43:57.447Z,23.90
2018-05-29T16:46:26.871Z,23.99
2018-05-29T16:48:56.910Z,23.82
2018-05-29T16:51:25.362Z,24.03
2018-05-29T16:53:53.902Z,24.11
2018-05-29T16:56:22.403Z,24.31
2018-05-29T16:58:51.280Z,24.41
2018-05-29T17:01:21.549Z,24.45
2018-05-29T17:03:50.000Z,24.54
2018-05-29T17:06:18.441Z,24.47
2018-05-29T17:08:47.034Z,24.45
2018-05-29T17:11:15.469Z,24.45
2018-05-29T17:13:44.599Z,24.44
2018-05-29T17:16:13.069Z,24.61
2018-05-29T17:18:41.823Z,24.94
2018-05-29T17:21:10.259Z,25.27
2018-05-29T17:23:38.592Z,25.70
2018-05-29T17:26:07.096Z,25.87
2018-05-29T17:28:35.654Z,25.75
2018-05-29T17:31:04.082Z,25.83
2018-05-29T17:33:32.462Z,26.10
2018-05-29T17:36:00.992Z,26.35
2018-05-29T17:38:30.249Z,26.37
2018-05-29T17:40:58.721Z,26.23
2018-05-29T17:43:27.205Z,26.13
2018-05-29T17:45:55.691Z,26.01
2018-05-29T17:48:24.051Z,25.77
2018-05-29T17:50:52.717Z,25.66
2018-05-29T17:53:21.287Z,25.75
2018-05-29T17:55:49.883Z,25.89
2018-05-29T17:58:18.304Z,26.00
2018-05-29T18:00:47.149Z,26.01
2018-05-29T18:03:15.587Z,26.26
2018-05-29T18:05:43.987Z,26.24
2018-05-29T18:08:12.675Z,26.20
2018-05-29T18:10:41.367Z,26.21
2018-05-29T18:13:10.187Z,26.30
2018-05-29T18:15:39.359Z,26.28
2018-05-29T18:18:07.883Z,26.26
2018-05-29T18:20:37.336Z,25.98
2018-05-29T18:23:06.325Z,25.62
2018-05-29T18:25:35.331Z,25.78
2018-05-29T18:28:03.798Z,26.00
2018-05-29T18:30:32.206Z,25.95
2018-05-29T18:33:00.771Z,25.97
2018-05-29T18:35:29.390Z,25.95
2018-05-29T18:37:58.528Z,25.78
2018-05-29T18:40:26.979Z,25.73
2018-05-29T18:42:55.532Z,25.73
2018-05-29T18:45:24.144Z,25.78
2018-05-29T18:47:53.503Z,25.82
2018-05-29T18:50:21.850Z,25.72
2018-05-29T18:52:50.232Z,25.63
2018-05-29T18:55:18.740Z,25.55
2018-05-29T18:57:47.260Z,25.37
2018-05-29T19:00:16.451Z,25.29
2018-05-29T19:02:45.727Z,25.18
2018-05-29T19:05:14.211Z,25.17
2018-05-29T19:07:42.714Z,25.04
2018-05-29T19:10:11.836Z,25.07
2018-05-29T19:12:40.365Z,25.17
2018-05-29T19:15:08.735Z,25.29
2018-05-29T19:17:38.401Z,25.21
2018-05-29T19:20:06.797Z,25.23
2018-05-29T19:22:35.330Z,25.34
2018-05-29T19:25:04.741Z,25.62
2018-05-29T19:27:33.118Z,25.82
2018-05-29T19:30:01.454Z,26.03
2018-05-29T19:32:29.839Z,25.90
2018-05-29T19:34:58.180Z,25.99
2018-05-29T19:37:26.685Z,26.06
2018-05-29T19:39:55.181Z,25.99
2018-05-29T19:42:24.304Z,26.00
2018-05-29T19:44:52.827Z,25.96
2018-05-29T19:47:21.154Z,25.92
2018-05-29T19:49:50.330Z,25.97
2018-05-29T19:52:19.540Z,25.95
2018-05-29T19:54:48.660Z,25.81
2018-05-29T19:57:17.002Z,25.79
2018-05-29T19:59:46.108Z,25.69
2018-05-29T20:02:15.199Z,25.64
2018-05-29T20:04:44.489Z,25.75
2018-05-29T20:07:13.727Z,25.63
2018-05-29T20:09:42.120Z,25.56
2018-05-29T20:12:10.541Z,25.76
2018-05-29T20:14:38.990Z,25.73
2018-05-29T20:17:07.837Z,25.22
2018-05-29T20:19:36.345Z,24.98
2018-05-29T20:22:04.981Z,24.70
2018-05-29T20:24:33.620Z,24.43
2018-05-29T20:27:02.407Z,24.34
2018-05-29T20:29:31.059Z,24.18
2018-05-29T20:31:59.450Z,23.96
2018-05-29T20:34:28.345Z,23.88
2018-05-29T20:36:56.806Z,23.66
2018-05-29T20:39:25.460Z,23.55
2018-05-29T20:41:55.052Z,23.58
2018-05-29T20:44:24.489Z,23.55
2018-05-29T20:46:52.973Z,23.60
2018-05-29T20:49:21.316Z,23.55
2018-05-29T20:51:50.551Z,23.40
2018-05-29T20:54:19.140Z,23.47
2018-05-29T20:56:47.602Z,23.48
2018-05-29T20:59:17.626Z,23.44
2018-05-29T21:01:46.055Z,23.39
2018-05-29T21:04:14.577Z,23.38
2018-05-29T21:06:43.077Z,23.32
2018-05-29T21:09:11.575Z,23.34
2018-05-29T21:11:39.890Z,23.30
2018-05-29T21:14:09.036Z,23.26
2018-05-29T21:16:37.401Z,23.25
2018-05-29T21:19:05.760Z,23.21
2018-05-29T21:21:34.086Z,23.22
2018-05-29T21:24:02.634Z,23.16
2018-05-29T21:26:31.201Z,23.20
2018-05-29T21:28:59.622Z,23.19
2018-05-29T21:31:28.008Z,23.03
2018-05-29T21:33:56.330Z,23.01
2018-05-29T21:36:24.786Z,22.95
2018-05-29T21:38:53.860Z,22.88
2018-05-29T21:41:22.293Z,22.87
2018-05-29T21:43:50.969Z,22.78
2018-05-29T21:46:19.319Z,22.76
2018-05-29T21:48:48.471Z,22.75
2018-05-29T21:51:16.846Z,22.82
2018-05-29T21:53:45.241Z,22.71
2018-05-29T21:56:13.587Z,22.67
2018-05-29T21:58:42.007Z,22.71
2018-05-29T22:01:10.553Z,22.63
2018-05-29T22:03:38.896Z,22.60
2018-05-29T22:06:07.275Z,22.58
2018-05-29T22:08:35.876Z,22.53
2018-05-29T22:11:04.423Z,22.32
2018-05-29T22:13:32.787Z,22.39
2018-05-29T22:16:02.041Z,22.47
2018-05-29T22:18:30.372Z,22.61
2018-05-29T22:20:59.648Z,22.62
2018-05-29T22:23:28.157Z,22.69
2018-05-29T22:25:56.538Z,22.74
2018-05-29T22:28:25.271Z,22.80
2018-05-29T22:30:53.627Z,22.86
2018-05-29T22:33:22.186Z,22.93
2018-05-29T22:35:50.908Z,22.93
2018-05-29T22:38:19.390Z,22.99
2018-05-29T22:40:47.856Z,23.05
2018-05-29T22:43:16.576Z,23.10
2018-05-29T22:45:45.077Z,23.15
2018-05-29T22:48:14.255Z,23.17
2018-05-29T22:50:42.599Z,23.19
2018-05-29T22:53:11.158Z,23.21
2018-05-29T22:55:39.689Z,23.22
2018-05-29T22:58:08.133Z,23.22
2018-05-29T23:00:36.468Z,23.24
2018-05-29T23:03:06.709Z,23.24
2018-05-29T23:05:35.096Z,23.24
2018-05-29T23:08:03.423Z,23.25
2018-05-29T23:10:32.116Z,23.21
2018-05-29T23:13:00.597Z,23.21
2018-05-29T23:15:29.811Z,23.16
2018-05-29T23:17:58.196Z,23.09
2018-05-29T23:20:26.538Z,23.12
2018-05-29T23:22:55.144Z,23.09
2018-05-29T23:25:24.495Z,23.07
2018-05-29T23:27:52.972Z,23.07
2018-05-29T23:30:21.441Z,23.09
2018-05-29T23:32:49.873Z,23.11
2018-05-29T23:35:20.071Z,23.13
2018-05-29T23:37:48.661Z,23.12
2018-05-29T23:40:17.871Z,23.09
2018-05-29T23:42:47.164Z,23.10
2018-05-29T23:45:16.280Z,23.10
2018-05-29T23:47:44.740Z,23.08
2018-05-29T23:50:14.165Z,23.07
2018-05-29T23:52:42.514Z,23.08
2018-05-29T23:55:11.637Z,23.07
2018-05-29T23:57:40.245Z,23.10
